Time;durP1;ratioP1;P1;durP2;ratioP2;P2;SDS_P1;SDS_P2;PMS_P1;PMS_P2;Temp;Humidity;BMP_temperature;BMP_pressure;BME280_temperature;BME280_humidity;BME280_pressure;Samples;Min_cycle;Max_cycle;Signal;HPM_P1;HPM_P2
2022/09/04 00:01:52;;;;;;;13.90;10.90;;;;;;;12.05;70.95;99198.88;86644;1305;23088;-79
2022/09/04 00:04:17;;;;;;;14.70;11.20;;;;;;;12.02;70.79;99204.50;85894;1311;99144;-78
2022/09/04 00:06:48;;;;;;;13.40;11.30;;;;;;;12.00;70.98;99200.38;85975;1312;22943;-77
2022/09/04 00:09:16;;;;;;;;;;;;;;;11.99;70.87;99204.65;85903;1314;22586;-77
2022/09/04 00:11:52;;;;;;;17.50;12.10;;;;;;;11.95;70.94;99206.95;86010;1311;22588;-77
2022/09/04 00:14:50;;;;;;;13.10;11.70;;;;;;;11.94;71.09;99203.60;86020;1307;543645;-77
2022/09/04 00:17:18;;;;;;;14.40;11.20;;;;;;;11.87;71.19;99207.64;87850;1284;97441;-77
2022/09/04 00:19:55;;;;;;;13.00;10.40;;;;;;;11.83;71.16;99209.12;87334;1292;26571;-77
2022/09/04 00:22:22;;;;;;;13.60;12.20;;;;;;;11.80;71.27;99210.48;88183;1283;98714;-78
2022/09/04 00:24:57;;;;;;;13.60;11.80;;;;;;;11.81;71.41;99204.28;88127;1281;22612;-77
2022/09/04 00:27:42;;;;;;;16.50;11.20;;;;;;;11.79;71.44;99204.91;88169;1283;24229;-77
2022/09/04 00:30:01;;;;;;;17.30;12.20;;;;;;;11.75;71.38;99205.62;84427;1287;22841;-76
2022/09/04 00:32:53;;;;;;;19.60;11.50;;;;;;;11.73;71.42;99208.16;87582;1287;22667;-77
2022/09/04 00:35:20;;;;;;;12.80;11.40;;;;;;;11.70;71.43;99204.77;86743;1297;98465;-77
2022/09/04 00:37:31;;;;;;;13.70;11.80;;;;;;;11.70;71.34;99200.74;86861;1297;22908;-77
2022/09/04 00:39:42;;;;;;;16.20;11.50;;;;;;;11.68;71.63;99193.25;86556;1300;99435;-77
2022/09/04 00:42:32;;;;;;;17.20;11.30;;;;;;;11.66;71.24;99194.45;86799;1300;23278;-77
2022/09/04 00:45:30;;;;;;;13.90;10.90;;;;;;;11.61;71.76;99191.54;86445;1303;22580;-77
2022/09/04 00:48:16;;;;;;;12.20;11.00;;;;;;;11.56;71.84;99191.57;86449;1303;24497;-77
2022/09/04 00:50:54;;;;;;;13.80;11.60;;;;;;;11.53;71.70;99195.60;86430;1304;22687;-78
2022/09/04 00:53:31;;;;;;;12.70;11.20;;;;;;;11.49;71.89;99197.38;86252;1303;97598;-77
2022/09/04 00:56:30;;;;;;;;;;;;;;;;;;;;;
2022/09/04 00:59:15;;;;;;;13.00;11.70;;;;;;;11.47;72.33;99200.64;86792;1300;97850;-78
2022/09/04 01:01:47;;;;;;;;;;;;;;;;;;;;;
2022/09/04 01:04:25;;;;;;;13.40;11.80;;;;;;;11.45;72.11;99203.56;86761;1300;98925;-76
2022/09/04 01:07:02;;;;;;;16.60;12.90;;;;;;;11.46;72.15;99202.64;86723;1300;24227;-78
2022/09/04 01:09:43;;;;;;;14.00;12.40;;;;;;;11.44;71.98;99201.50;86897;1297;22584;-78
2022/09/04 01:12:02;;;;;;;13.90;12.40;;;;;;;11.40;72.35;99199.21;86618;1299;23253;-76
2022/09/04 01:14:32;;;;;;;13.20;11.80;;;;;;;11.39;72.20;99201.17;87458;1294;22614;-77
2022/09/04 01:17:10;;;;;;;19.20;12.10;;;;;;;11.37;72.42;99205.66;87307;1293;97571;-77
2022/09/04 01:20:17;;;;;;;13.40;11.50;;;;;;;11.28;72.33;99193.09;87487;1294;23979;-77
2022/09/04 01:23:20;;;;;;;13.20;11.80;;;;;;;11.36;72.57;99201.70;87680;1285;98683;-77
2022/09/04 01:26:07;;;;;;;14.60;12.20;;;;;;;11.34;72.30;99200.56;87288;1293;25633;-78
2022/09/04 01:28:31;;;;;;;13.20;11.80;;;;;;;11.33;72.55;99201.98;87185;1293;97553;-77
2022/09/04 01:31:16;;;;;;;14.90;12.20;;;;;;;11.32;72.24;99202.21;87253;1294;24291;-76
2022/09/04 01:34:03;;;;;;;14.10;11.80;;;;;;;11.27;72.35;99198.40;86880;1300;25408;-77
2022/09/04 01:36:27;;;;;;;14.10;12.60;;;;;;;11.25;72.56;99198.84;86914;1300;24510;-78
2022/09/04 01:39:08;;;;;;;13.00;11.60;;;;;;;11.28;72.86;99199.60;86887;1300;22648;-77
2022/09/04 01:41:50;;;;;;;;;;;;;;;;;;;;;
2022/09/04 01:43:59;;;;;;;12.70;11.50;;;;;;;11.32;72.64;99202.23;86721;1302;22606;-78
2022/09/04 01:46:07;;;;;;;12.20;11.00;;;;;;;11.30;72.55;99201.60;86485;1303;98968;-77
2022/09/04 01:48:16;;;;;;;12.40;11.20;;;;;;;11.30;72.66;99203.73;86842;1299;25261;-77
2022/09/04 01:50:52;;;;;;;14.10;11.90;;;;;;;11.26;72.80;99201.48;87436;1297;22586;-77
2022/09/04 01:53:22;;;;;;;14.10;11.10;;;;;;;11.25;72.63;99209.59;87370;1294;99054;-79
2022/09/04 01:56:08;;;;;;;14.10;11.40;;;;;;;11.24;72.81;99206.30;87223;1297;22626;-79
2022/09/04 01:59:15;;;;;;;;;;;;;;;;;;;;;
2022/09/04 02:01:55;;;;;;;14.80;11.70;;;;;;;11.27;72.63;99206.86;87025;1297;23486;-76
2022/09/04 02:04:45;;;;;;;14.20;12.80;;;;;;;11.27;72.83;99206.16;86988;1297;98457;-77
2022/09/04 02:07:38;;;;;;;12.30;11.10;;;;;;;11.25;72.60;99209.25;86892;1300;24023;-77
2022/09/04 02:10:43;;;;;;;12.90;11.40;;;;;;;11.20;73.20;99204.23;86254;1309;99456;-77
2022/09/04 02:14:01;;;;;;;12.70;11.40;;;;;;;11.22;73.00;99208.31;85925;1312;542868;-78
2022/09/04 02:16:22;;;;;;;12.70;11.50;;;;;;;11.19;73.02;99213.95;88205;1287;98335;-77
2022/09/04 02:19:06;;;;;;;14.70;11.90;;;;;;;11.20;73.13;99213.72;87857;1289;25426;-77
2022/09/04 02:21:33;;;;;;;12.80;11.60;;;;;;;11.20;73.00;99212.11;88469;1282;22629;-79
2022/09/04 02:24:14;;;;;;;16.90;12.70;;;;;;;11.20;73.17;99211.56;88260;1284;98365;-77
2022/09/04 02:26:29;;;;;;;13.00;11.70;;;;;;;11.22;73.20;99215.19;87645;1282;1508515;-77
2022/09/04 02:29:39;;;;;;;15.20;12.30;;;;;;;11.21;73.39;99209.80;88419;1283;98837;-78
2022/09/04 02:32:07;;;;;;;12.50;11.30;;;;;;;11.21;73.31;99209.42;88120;1286;27025;-78
2022/09/04 02:34:37;;;;;;;13.40;11.80;;;;;;;11.20;73.47;99207.89;87415;1294;99496;-78
2022/09/04 02:37:21;;;;;;;12.90;11.70;;;;;;;11.19;73.21;99204.78;87485;1292;24383;-78
2022/09/04 02:40:07;;;;;;;;;;;;;;;;;;;;;
2022/09/04 02:42:54;;;;;;;;;;;;;;;;;;;;;
2022/09/04 02:45:45;;;;;;;16.50;12.10;;;;;;;11.16;73.53;99196.31;87391;1294;25279;-76
2022/09/04 02:48:19;;;;;;;16.70;11.80;;;;;;;11.13;73.42;99203.11;87242;1297;23265;-77
2022/09/04 02:51:16;;;;;;;;;;;;;;;;;;;;;
2022/09/04 02:53:59;;;;;;;14.20;11.70;;;;;;;11.11;73.40;99205.88;86919;1301;98949;-77
2022/09/04 02:56:26;;;;;;;12.40;11.10;;;;;;;11.10;73.71;99207.68;87030;1301;22752;-77
2022/09/04 02:59:02;;;;;;;14.60;11.20;;;;;;;11.08;73.57;99217.05;86927;1297;98662;-77
2022/09/04 03:01:52;;;;;;;;;;;;;;;;;;;;;
2022/09/04 03:04:34;;;;;;;12.80;11.50;;;;;;;11.05;73.75;99211.56;86535;1303;98821;-76
2022/09/04 03:07:10;;;;;;;12.60;11.30;;;;;;;11.00;73.66;99201.06;86574;1306;25425;-78
2022/09/04 03:09:46;;;;;;;12.70;11.50;;;;;;;11.01;73.70;99199.45;87204;1300;25397;-77
2022/09/04 03:12:25;;;;;;;12.10;10.90;;;;;;;10.97;73.53;99194.71;87128;1294;22565;-78
2022/09/04 03:15:00;;;;;;;18.80;12.00;;;;;;;10.88;73.73;99190.90;87421;1294;26176;-77
2022/09/04 03:17:32;;;;;;;12.50;11.20;;;;;;;10.83;73.72;99191.85;87271;1291;98671;-77
2022/09/04 03:20:24;;;;;;;12.50;11.30;;;;;;;10.84;73.85;99196.54;87572;1294;22563;-78
2022/09/04 03:22:51;;;;;;;13.60;12.30;;;;;;;10.85;74.10;99198.98;87341;1290;97852;-78
2022/09/04 03:25:45;;;;;;;13.00;11.70;;;;;;;10.84;73.79;99196.74;87813;1288;25452;-77
2022/09/04 03:27:53;;;;;;;13.10;11.50;;;;;;;10.82;73.84;99199.45;87845;1287;97825;-77
2022/09/04 03:30:24;;;;;;;15.40;11.50;;;;;;;10.78;73.92;99195.77;88104;1285;22581;-76
2022/09/04 03:33:11;;;;;;;12.60;11.30;;;;;;;10.74;73.89;99192.40;88161;1286;22811;-76
2022/09/04 03:35:33;;;;;;;14.30;11.60;;;;;;;10.71;73.96;99194.32;87844;1285;98621;-77
2022/09/04 03:38:06;;;;;;;14.00;12.20;;;;;;;10.67;73.97;99201.16;87653;1285;22636;-78
2022/09/04 03:40:48;;;;;;;13.00;11.60;;;;;;;10.63;74.18;99199.23;87557;1288;98791;-76
2022/09/04 03:43:14;;;;;;;14.40;11.90;;;;;;;10.59;73.94;99202.05;87965;1283;22811;-77
2022/09/04 03:45:52;;;;;;;13.30;11.90;;;;;;;10.56;74.08;99203.61;87980;1281;25328;-77
2022/09/04 03:48:11;;;;;;;13.00;11.70;;;;;;;10.56;74.26;99208.68;88011;1284;26945;-77
2022/09/04 03:50:57;;;;;;;13.90;11.90;;;;;;;10.56;74.29;99215.88;87949;1284;24274;-77
2022/09/04 03:53:31;;;;;;;14.40;11.90;;;;;;;10.57;74.18;99218.14;87628;1287;98830;-78
2022/09/04 03:56:08;;;;;;;15.40;12.70;;;;;;;10.55;74.16;99216.09;87789;1287;24279;-77
2022/09/04 03:58:46;;;;;;;14.70;13.10;;;;;;;10.44;74.42;99198.50;87891;1284;98813;-78
2022/09/04 04:01:41;;;;;;;23.50;12.70;;;;;;;10.50;74.28;99217.41;88237;1281;24235;-78
2022/09/04 04:04:52;;;;;;;17.10;13.00;;;;;;;10.46;74.20;99217.92;88152;1281;24265;-78
2022/09/04 04:08:24;;;;;;;;;;;;;;;;;;;;;
2022/09/04 04:11:02;;;;;;;14.60;13.10;;;;;;;10.39;74.71;99217.34;87979;1283;98842;-77
2022/09/04 04:14:13;;;;;;;14.90;13.20;;;;;;;10.37;74.83;99216.73;88066;1285;24050;-77
2022/09/04 04:17:00;;;;;;;17.30;13.70;;;;;;;10.37;74.72;99221.45;87941;1284;99040;-78
2022/09/04 04:19:30;;;;;;;15.00;13.40;;;;;;;10.37;74.72;99220.92;88008;1284;25273;-77
2022/09/04 04:22:00;;;;;;;17.70;14.50;;;;;;;10.37;74.65;99222.86;87848;1285;22761;-79
2022/09/04 04:24:19;;;;;;;14.90;12.80;;;;;;;10.37;74.80;99222.86;87967;1284;22681;-76
2022/09/04 04:26:46;;;;;;;15.90;13.70;;;;;;;10.37;74.90;99228.67;88040;1285;22722;-76
2022/09/04 04:29:35;;;;;;;14.60;13.10;;;;;;;10.36;74.88;99231.67;88193;1278;97704;-77
2022/09/04 04:32:42;;;;;;;15.60;13.90;;;;;;;10.36;75.06;99235.89;87959;1284;22560;-78
2022/09/04 04:35:28;;;;;;;15.30;13.70;;;;;;;10.38;74.93;99242.67;86910;1294;97755;-78
2022/09/04 04:38:11;;;;;;;15.30;13.40;;;;;;;10.39;75.22;99246.48;86648;1297;25872;-76
2022/09/04 04:40:52;;;;;;;17.60;12.80;;;;;;;10.42;75.24;99249.20;86529;1301;98894;-76
2022/09/04 04:43:21;;;;;;;18.10;13.80;;;;;;;10.42;75.18;99248.30;86542;1300;22601;-78
2022/09/04 04:45:51;;;;;;;16.10;12.70;;;;;;;10.45;75.00;99246.97;86461;1300;22647;-77
2022/09/04 04:48:49;;;;;;;15.80;14.00;;;;;;;10.46;75.23;99246.55;86747;1298;22782;-78
2022/09/04 04:51:59;;;;;;;;;;;;;;;;;;;;;
2022/09/04 04:55:48;;;;;;;16.10;14.40;;;;;;;10.51;75.30;99253.18;85613;1312;544047;-78
2022/09/04 04:58:26;;;;;;;17.70;13.80;;;;;;;10.57;75.47;99257.69;87924;1283;99312;-76
2022/09/04 05:01:33;;;;;;;14.70;12.40;;;;;;;10.61;75.69;99255.73;87454;1289;22778;-76
2022/09/04 05:04:36;;;;;;;14.70;12.70;;;;;;;10.65;75.48;99256.81;87289;1292;25532;-79
2022/09/04 05:07:41;;;;;;;14.10;12.40;;;;;;;10.69;75.54;99267.48;86840;1298;22642;-78
2022/09/04 05:10:55;;;;;;;18.10;12.60;;;;;;;10.77;75.63;99267.02;85398;1300;23025;-78
2022/09/04 05:14:24;;;;;;;15.20;11.70;;;;;;;10.86;75.51;99270.10;86524;1300;22586;-78
2022/09/04 05:17:39;;;;;;;12.40;11.00;;;;;;;10.99;75.48;99270.23;85966;1313;23367;-75
2022/09/04 05:20:49;;;;;;;13.50;11.80;;;;;;;11.10;75.80;99272.04;84955;1325;22629;-77
2022/09/04 05:23:36;;;;;;;12.10;10.90;;;;;;;11.18;75.26;99273.95;84905;1321;98607;-77
2022/09/04 05:26:40;;;;;;;;;;;;;;;;;;;;;
2022/09/04 05:29:40;;;;;;;11.30;10.20;;;;;;;11.33;75.54;99279.59;84635;1328;98869;-76
2022/09/04 05:32:48;;;;;;;11.50;10.30;;;;;;;11.44;75.55;99284.04;84512;1331;25356;-77
2022/09/04 05:39:29;;;;;;;;;;;;;;;;;;;;;
2022/09/04 05:42:49;;;;;;;;;;;;;;;;;;;;;
2022/09/04 05:45:13;;;;;;;10.70;8.50;;;;;;;11.75;75.23;99290.27;88836;1286;22565;-77
2022/09/04 05:47:53;;;;;;;9.40;8.40;;;;;;;11.79;75.18;99288.71;88810;1287;97203;-78
2022/09/04 05:50:34;;;;;;;7.90;7.20;;;;;;;11.84;75.17;99290.22;88973;1286;24303;-78
2022/09/04 05:53:15;;;;;;;;;;;;;;;;;;;;;
2022/09/04 05:55:47;;;;;;;10.00;8.40;;;;;;;11.94;75.19;99293.45;88102;1286;23055;-77
2022/09/04 05:58:37;;;;;;;9.70;8.50;;;;;;;11.99;75.04;99300.96;87691;1289;22636;-77
2022/09/04 06:01:31;;;;;;;9.10;8.20;;;;;;;12.04;75.13;99302.15;87619;1292;22615;-77
2022/09/04 06:04:07;;;;;;;8.80;8.00;;;;;;;12.07;75.08;99299.34;87373;1292;26566;-79
2022/09/04 06:06:21;;;;;;;9.70;8.00;;;;;;;12.11;75.06;99304.29;87230;1293;24655;-78
2022/09/04 06:09:49;;;;;;;11.70;8.30;;;;;;;12.13;75.08;99305.06;87190;1293;22640;-77
2022/09/04 06:13:09;;;;;;;8.20;6.70;;;;;;;12.20;75.25;99304.89;87170;1292;98610;-76
2022/09/04 06:15:47;;;;;;;;;;;;;;;;;;;;;
2022/09/04 06:18:55;;;;;;;;;;;;;;;;;;;;;
2022/09/04 06:22:08;;;;;;;8.00;7.20;;;;;;;12.32;75.17;99313.27;86598;1300;25456;-76
2022/09/04 06:25:13;;;;;;;8.50;6.30;;;;;;;12.35;74.98;99317.16;86053;1307;25591;-76
2022/09/04 06:28:34;;;;;;;10.40;6.50;;;;;;;12.36;74.86;99318.35;85893;1311;23618;-76
2022/09/04 06:31:36;;;;;;;;;;;;;;;;;;;;;
2022/09/04 06:34:50;;;;;;;7.90;6.60;;;;;;;12.44;74.87;99326.73;84949;1321;22715;-78
2022/09/04 06:37:27;;;;;;;5.50;5.10;;;;;;;12.46;75.00;99327.20;84770;1321;22808;-77
2022/09/04 06:40:34;;;;;;;7.50;6.80;;;;;;;12.50;74.83;99334.61;85049;1321;23858;-77
2022/09/04 06:43:36;;;;;;;6.60;6.00;;;;;;;12.50;74.94;99335.09;84706;1324;25338;-77
2022/09/04 06:46:07;;;;;;;7.70;7.00;;;;;;;12.51;74.92;99339.31;84872;1325;24320;-76
2022/09/04 06:49:25;;;;;;;9.00;6.80;;;;;;;12.53;74.87;99338.65;84865;1324;24344;-77
2022/09/04 06:52:21;;;;;;;7.00;6.40;;;;;;;12.54;74.84;99340.20;84714;1325;27195;-77
2022/09/04 06:55:32;;;;;;;7.70;7.00;;;;;;;12.55;74.83;99338.92;84320;1331;22633;-76
2022/09/04 06:58:51;;;;;;;;;;;;;;;;;;;;;
2022/09/04 07:01:43;;;;;;;;;;;;;;;;;;;;;
2022/09/04 07:03:53;;;;;;;;;;;;;;;12.59;74.98;99344.86;88482;1277;22617;-77
2022/09/04 07:07:23;;;;;;;;;;;;;;;;;;;;;
2022/09/04 07:10:19;;;;;;;10.70;5.90;;;;;;;12.61;75.06;99344.09;87913;1286;23144;-78
2022/09/04 07:13:24;;;;;;;7.60;6.60;;;;;;;12.64;74.82;99346.23;84061;1283;5428460;-77
2022/09/04 07:16:15;;;;;;;6.80;6.20;;;;;;;12.65;74.98;99345.30;88126;1283;22729;-77
2022/09/04 07:18:56;;;;;;;9.00;6.80;;;;;;;12.65;74.96;99344.02;87190;1290;97993;-77
2022/09/04 07:21:41;;;;;;;10.20;6.00;;;;;;;12.67;75.09;99342.34;86721;1297;22662;-77
2022/09/04 07:24:24;;;;;;;7.40;6.80;;;;;;;12.71;74.86;99344.27;86679;1297;98892;-77
2022/09/04 07:26:40;;;;;;;6.80;6.20;;;;;;;12.74;74.97;99341.47;86764;1295;22589;-78
2022/09/04 07:30:10;;;;;;;19.60;6.20;;;;;;;12.77;74.91;99346.23;86637;1297;98283;-76
2022/09/04 07:32:27;;;;;;;8.50;5.70;;;;;;;12.81;74.96;99343.93;86305;1309;22649;-78
2022/09/04 07:34:51;;;;;;;11.90;6.70;;;;;;;12.86;74.98;99345.11;85969;1311;98736;-77
2022/09/04 07:37:38;;;;;;;7.10;6.50;;;;;;;12.90;75.00;99345.41;85796;1312;25514;-77
2022/09/04 07:40:53;;;;;;;8.30;6.50;;;;;;;13.01;75.01;99352.41;85809;1310;543189;-78
2022/09/04 07:43:20;;;;;;;7.60;6.20;;;;;;;13.06;74.86;99353.08;88702;1277;22575;-77
2022/09/04 07:46:32;;;;;;;6.20;5.70;;;;;;;13.09;74.93;99351.99;88613;1277;25516;-77
2022/09/04 07:48:46;;;;;;;6.80;6.10;;;;;;;13.17;75.05;99353.18;87905;1285;22867;-76
2022/09/04 07:51:41;;;;;;;9.40;6.10;;;;;;;13.24;74.87;99351.40;87868;1285;22587;-77
2022/09/04 07:54:59;;;;;;;6.40;5.90;;;;;;;13.32;74.90;99350.09;83575;1285;5348776;-75
2022/09/04 07:58:06;;;;;;;7.00;6.10;;;;;;;13.40;74.85;99353.58;87701;1284;22638;-74
2022/09/04 08:00:54;;;;;;;6.50;6.00;;;;;;;13.45;74.81;99362.33;87680;1285;98812;-75
2022/09/04 08:03:46;;;;;;;6.50;5.90;;;;;;;13.53;74.77;99363.30;87645;1285;25116;-74
2022/09/04 08:06:49;;;;;;;6.60;6.00;;;;;;;13.69;75.16;99362.63;87381;1287;98586;-75
2022/09/04 08:09:57;;;;;;;9.10;5.70;;;;;;;13.89;74.86;99361.51;86856;1294;22579;-76
2022/09/04 08:12:55;;;;;;;6.90;6.20;;;;;;;14.09;74.73;99362.35;86761;1294;98357;-75
2022/09/04 08:15:33;;;;;;;7.00;6.30;;;;;;;14.27;74.53;99371.92;86903;1295;22732;-77
2022/09/04 08:18:00;;;;;;;8.60;5.50;;;;;;;14.33;74.15;99376.55;86849;1294;98809;-75
2022/09/04 08:20:14;;;;;;;10.90;6.50;;;;;;;14.35;74.08;99372.04;87170;1294;25936;-75
2022/09/04 08:23:19;;;;;;;;;;;;;;;;;;;;;
2022/09/04 08:25:57;;;;;;;;;;;;;;;;;;;;;
2022/09/04 08:28:56;;;;;;;6.50;6.00;;;;;;;14.47;73.84;99384.92;87633;1286;22717;-75
2022/09/04 08:31:19;;;;;;;6.40;5.80;;;;;;;14.53;73.84;99388.35;87413;1287;22569;-75
2022/09/04 08:34:10;;;;;;;8.50;6.60;;;;;;;14.56;73.82;99391.85;87652;1286;22637;-75
2022/09/04 08:37:20;;;;;;;10.10;6.90;;;;;;;14.58;73.59;99393.86;87591;1286;98117;-75
2022/09/04 08:40:31;;;;;;;8.00;6.90;;;;;;;14.63;73.81;99398.53;87146;1292;22801;-75
2022/09/04 08:43:25;;;;;;;8.60;6.50;;;;;;;14.71;73.81;99402.86;87115;1292;24338;-76
2022/09/04 08:46:21;;;;;;;11.50;7.10;;;;;;;14.78;73.86;99403.48;87135;1291;22765;-75
2022/09/04 08:49:14;;;;;;;7.50;6.90;;;;;;;14.88;73.72;99397.11;87489;1285;98353;-74
2022/09/04 08:51:41;;;;;;;9.70;7.10;;;;;;;14.97;73.51;99396.73;87672;1285;22764;-75
2022/09/04 08:54:38;;;;;;;8.10;7.30;;;;;;;15.04;73.54;99394.00;86927;1291;98514;-74
2022/09/04 08:57:01;;;;;;;7.70;6.90;;;;;;;15.13;73.50;99399.86;86888;1294;25306;-76
2022/09/04 08:59:49;;;;;;;7.80;6.60;;;;;;;15.23;73.25;99403.86;86908;1294;99317;-76
2022/09/04 09:02:59;;;;;;;7.00;6.10;;;;;;;15.37;73.19;99409.05;86781;1295;22587;-76
2022/09/04 09:05:55;;;;;;;8.90;6.60;;;;;;;15.50;73.03;99410.02;86784;1294;98343;-75
2022/09/04 09:09:04;;;;;;;11.20;7.00;;;;;;;15.76;73.27;99411.61;87007;1294;22702;-78
2022/09/04 09:12:09;;;;;;;9.40;6.80;;;;;;;16.04;73.06;99405.60;86791;1297;98525;-79
2022/09/04 09:15:17;;;;;;;;;;;;;;;;;;;;;
2022/09/04 09:18:16;;;;;;;11.10;7.40;;;;;;;16.38;72.37;99407.86;87024;1292;98369;-77
2022/09/04 09:20:30;;;;;;;6.80;6.30;;;;;;;16.45;72.06;99413.11;87083;1294;25545;-75
2022/09/04 09:23:40;;;;;;;;;;;;;;;;;;;;;
2022/09/04 09:26:29;;;;;;;;;;;;;;;;;;;;;
2022/09/04 09:29:32;;;;;;;6.70;6.10;;;;;;;16.69;71.90;99417.18;87007;1292;98561;-75
2022/09/04 09:32:29;;;;;;;5.80;5.30;;;;;;;16.73;71.69;99420.45;87478;1286;22689;-76
2022/09/04 09:35:12;;;;;;;7.40;6.00;;;;;;;16.74;71.54;99424.99;87279;1287;98920;-76
2022/09/04 09:37:56;;;;;;;10.40;6.40;;;;;;;16.75;71.33;99422.98;87115;1291;22586;-74
2022/09/04 09:41:15;;;;;;;6.40;5.90;;;;;;;16.73;71.40;99426.35;86676;1297;22742;-77
2022/09/04 09:44:10;;;;;;;;;;;;;;;;;;;;;
2022/09/04 09:47:11;;;;;;;6.40;5.80;;;;;;;16.72;71.32;99429.77;86278;1303;22733;-77
2022/09/04 09:49:43;;;;;;;11.30;6.40;;;;;;;16.67;71.06;99429.74;86159;1303;22758;-73
2022/09/04 09:52:06;;;;;;;8.20;5.80;;;;;;;16.64;71.22;99428.37;85857;1309;22884;-75
2022/09/04 09:54:57;;;;;;;5.70;5.20;;;;;;;16.63;71.36;99431.74;86214;1308;98370;-75
2022/09/04 09:57:51;;;;;;;6.30;5.70;;;;;;;16.60;71.12;99433.57;85921;1305;23721;-74
2022/09/04 10:00:55;;;;;;;5.60;5.10;;;;;;;16.61;71.16;99432.48;85753;1309;98618;-75
2022/09/04 10:03:34;;;;;;;9.80;5.80;;;;;;;16.67;71.12;99432.38;85740;1313;22654;-74
2022/09/04 10:06:00;;;;;;;5.80;5.40;;;;;;;16.73;70.99;99432.52;85546;1312;98903;-74
2022/09/04 10:09:11;;;;;;;6.10;5.60;;;;;;;16.81;71.34;99430.73;85123;1319;23843;-76
2022/09/04 10:11:47;;;;;;;7.30;5.70;;;;;;;16.83;70.97;99427.62;85258;1317;98534;-75
2022/09/04 10:14:17;;;;;;;6.30;5.70;;;;;;;16.82;70.77;99425.19;84912;1322;22844;-75
2022/09/04 10:16:28;;;;;;;6.20;5.80;;;;;;;16.82;70.92;99426.41;84953;1322;22790;-75
2022/09/04 10:18:53;;;;;;;6.60;5.90;;;;;;;16.87;70.81;99423.61;85039;1321;98630;-75
2022/09/04 10:21:37;;;;;;;11.30;6.50;;;;;;;17.04;70.83;99428.94;85057;1321;22613;-75
2022/09/04 10:24:13;;;;;;;4.60;4.30;;;;;;;17.18;70.69;99432.23;84423;1327;99135;-76
2022/09/04 10:26:41;;;;;;;7.30;6.30;;;;;;;17.30;70.44;99428.92;84816;1321;26949;-75
2022/09/04 10:29:12;;;;;;;5.90;5.40;;;;;;;17.33;70.51;99429.98;84761;1321;98799;-74
2022/09/04 10:31:51;;;;;;;6.90;6.00;;;;;;;17.36;70.43;99434.19;85064;1318;22809;-75
2022/09/04 10:34:45;;;;;;;6.30;5.70;;;;;;;17.43;70.52;99431.25;84561;1327;24328;-76
2022/09/04 10:37:36;;;;;;;5.80;5.40;;;;;;;17.44;70.05;99437.35;84493;1325;26642;-76
2022/09/04 10:40:37;;;;;;;7.70;5.50;;;;;;;17.48;69.96;99439.40;84556;1326;22954;-75
2022/09/04 10:43:11;;;;;;;5.40;5.00;;;;;;;17.47;70.08;99444.97;84931;1320;22089;-75
2022/09/04 10:45:31;;;;;;;5.30;4.90;;;;;;;17.52;69.65;99448.19;85034;1320;22734;-75
2022/09/04 10:48:09;;;;;;;5.20;4.90;;;;;;;17.58;69.88;99446.38;85193;1317;98584;-76
2022/09/04 10:50:45;;;;;;;5.60;5.00;;;;;;;17.77;70.08;99447.52;85174;1315;22614;-75
2022/09/04 10:53:37;;;;;;;6.10;5.50;;;;;;;17.86;69.45;99444.58;85347;1315;99307;-75
2022/09/04 10:56:05;;;;;;;5.10;4.70;;;;;;;17.81;69.25;99443.48;85591;1314;23244;-74
2022/09/04 10:58:28;;;;;;;5.30;4.80;;;;;;;17.95;69.25;99443.83;85725;1313;23580;-76
2022/09/04 11:00:49;;;;;;;5.20;4.80;;;;;;;17.94;69.02;99439.29;85570;1306;97312;-76
2022/09/04 11:03:33;;;;;;;7.90;5.50;;;;;;;17.93;69.12;99440.18;86538;1303;25452;-74
2022/09/04 11:06:25;;;;;;;7.50;4.50;;;;;;;17.90;69.10;99440.60;86153;1300;98741;-76
2022/09/04 11:09:14;;;;;;;5.50;4.90;;;;;;;17.92;69.06;99436.54;86696;1300;24783;-74
2022/09/04 11:11:39;;;;;;;5.40;4.90;;;;;;;17.97;69.10;99438.67;86352;1300;97360;-75
2022/09/04 11:14:15;;;;;;;6.40;5.10;;;;;;;18.04;69.00;99442.48;86419;1300;22783;-75
2022/09/04 11:16:27;;;;;;;6.90;4.30;;;;;;;18.15;68.92;99442.88;86398;1300;27628;-75
2022/09/04 11:19:09;;;;;;;5.10;4.60;;;;;;;18.28;68.97;99445.22;86349;1300;98799;-75
2022/09/04 11:21:36;;;;;;;5.30;4.90;;;;;;;18.38;68.83;99443.88;86411;1300;25551;-75
2022/09/04 11:24:12;;;;;;;7.00;4.50;;;;;;;18.47;68.61;99445.05;86245;1303;98587;-75
2022/09/04 11:27:13;;;;;;;4.90;4.00;;;;;;;18.47;68.42;99439.66;86353;1301;22602;-75
2022/09/04 11:29:44;;;;;;;6.60;4.40;;;;;;;18.51;68.42;99439.04;86342;1300;98577;-75
2022/09/04 11:32:24;;;;;;;5.50;5.10;;;;;;;18.58;68.32;99442.80;86749;1299;25498;-75
2022/09/04 11:35:36;;;;;;;;;;;;;;;;;;;;;
2022/09/04 11:38:23;;;;;;;4.20;3.90;;;;;;;18.89;68.41;99438.72;86486;1297;22775;-76
2022/09/04 11:41:14;;;;;;;4.80;4.40;;;;;;;18.98;67.89;99432.05;86190;1303;22762;-74
2022/09/04 11:43:29;;;;;;;5.20;4.70;;;;;;;18.95;67.87;99433.48;86731;1298;24568;-75
2022/09/04 11:45:42;;;;;;;4.40;4.10;;;;;;;18.97;67.89;99429.61;86670;1297;24267;-76
2022/09/04 11:48:06;;;;;;;5.90;4.40;;;;;;;18.99;67.76;99426.11;86684;1291;98222;-75
2022/09/04 11:50:22;;;;;;;5.50;4.60;;;;;;;18.94;67.65;99424.65;87008;1293;22693;-74
2022/09/04 11:52:54;;;;;;;4.70;4.30;;;;;;;18.92;67.77;99425.70;86976;1292;22765;-75
2022/09/04 11:55:23;;;;;;;6.10;5.10;;;;;;;18.93;67.83;99419.93;86984;1294;23839;-76
2022/09/04 11:58:03;;;;;;;6.10;4.70;;;;;;;18.90;67.79;99420.33;86961;1292;23441;-76
2022/09/04 12:00:14;;;;;;;5.70;5.20;;;;;;;18.92;67.90;99421.06;86611;1297;98842;-76
2022/09/04 12:02:51;;;;;;;5.20;4.70;;;;;;;18.93;67.62;99425.13;87211;1290;24272;-74
2022/09/04 12:05:02;;;;;;;5.10;4.80;;;;;;;18.88;67.42;99422.98;87186;1290;98352;-76
2022/09/04 12:08:01;;;;;;;7.00;4.60;;;;;;;18.83;67.54;99415.30;87234;1290;22576;-77
2022/09/04 12:10:42;;;;;;;5.20;4.70;;;;;;;18.81;67.34;99419.52;87266;1290;24419;-74
2022/09/04 12:12:56;;;;;;;6.30;5.40;;;;;;;18.85;67.67;99418.58;87584;1284;22732;-75
2022/09/04 12:15:39;;;;;;;5.40;4.20;;;;;;;18.94;67.77;99420.95;87738;1284;22773;-75
2022/09/04 12:18:19;;;;;;;7.10;4.20;;;;;;;19.01;67.45;99420.37;87201;1290;98873;-75
2022/09/04 12:20:30;;;;;;;4.20;3.90;;;;;;;19.08;67.31;99422.94;86803;1297;22613;-74
2022/09/04 12:22:53;;;;;;;4.50;3.90;;;;;;;19.13;67.25;99424.29;86700;1294;99820;-75
2022/09/04 12:25:29;;;;;;;4.60;4.10;;;;;;;19.19;67.19;99421.65;86778;1295;22846;-75
2022/09/04 12:28:15;;;;;;;4.10;3.70;;;;;;;19.28;66.82;99425.54;86806;1298;22596;-76
2022/09/04 12:30:28;;;;;;;4.50;3.80;;;;;;;19.22;66.39;99428.95;86608;1298;98841;-76
2022/09/04 12:33:18;;;;;;;5.30;4.50;;;;;;;19.19;66.57;99429.19;86777;1298;22595;-75
2022/09/04 12:35:50;;;;;;;4.50;4.10;;;;;;;19.16;66.31;99424.23;86922;1294;98925;-75
2022/09/04 12:38:13;;;;;;;4.10;3.80;;;;;;;19.13;66.40;99420.05;87300;1291;22957;-75
2022/09/04 12:40:24;;;;;;;4.50;4.10;;;;;;;19.17;66.49;99421.84;87176;1290;24528;-75
2022/09/04 12:42:56;;;;;;;6.90;3.60;;;;;;;19.23;66.49;99418.00;87301;1287;98660;-76
2022/09/04 12:45:28;;;;;;;4.80;3.30;;;;;;;19.29;66.24;99413.83;87379;1290;22715;-76
2022/09/04 12:47:46;;;;;;;4.80;3.60;;;;;;;19.28;65.84;99414.12;87293;1288;99133;-75
2022/09/04 12:50:08;;;;;;;4.20;3.90;;;;;;;19.27;65.80;99414.91;87214;1289;22624;-74
2022/09/04 12:52:55;;;;;;;4.20;3.50;;;;;;;19.25;65.78;99417.90;87407;1287;22600;-77
2022/09/04 12:55:21;;;;;;;7.30;3.60;;;;;;;19.24;66.02;99413.52;87060;1292;22880;-76
2022/09/04 12:57:45;;;;;;;3.80;3.50;;;;;;;19.28;66.08;99413.02;87495;1287;22614;-74
2022/09/04 13:00:06;;;;;;;5.40;3.60;;;;;;;19.34;65.90;99415.17;87536;1286;99574;-75
2022/09/04 13:02:26;;;;;;;3.40;3.20;;;;;;;19.41;65.63;99418.02;88021;1281;22758;-75
2022/09/04 13:05:04;;;;;;;7.20;3.70;;;;;;;19.45;65.71;99414.50;87865;1284;22755;-74
2022/09/04 13:07:52;;;;;;;3.50;3.30;;;;;;;19.51;65.56;99414.24;87989;1281;22616;-76
2022/09/04 13:10:01;;;;;;;3.80;3.50;;;;;;;19.53;65.46;99413.05;87410;1287;22979;-77
2022/09/04 13:12:57;;;;;;;4.20;3.50;;;;;;;19.54;65.09;99415.62;87246;1290;98769;-74
2022/09/04 13:15:18;;;;;;;3.90;3.60;;;;;;;19.53;65.24;99416.57;87362;1288;22623;-77
2022/09/04 13:17:35;;;;;;;4.90;3.60;;;;;;;19.54;64.97;99417.59;87991;1290;97782;-75
2022/09/04 13:20:23;;;;;;;4.60;3.30;;;;;;;19.49;64.87;99419.58;88957;1288;22638;-74
2022/09/04 13:22:51;;;;;;;3.50;3.30;;;;;;;19.46;64.78;99419.81;88028;1302;25399;-76